Flight Track Log - Related Links

Times and Time Zones

All times are in EDT time to prevent confusion due to time zone crossing. See the N658DS flight status page for this flight to view local times or setup timezone preferences in your user account.


Time Position Orientation Groundspeed Altitude Reporting Facility
EDT Latitude Longitude Course Direction KTS MPH feet Rate Location/Type
Sun 08:04:05 AM 30.5719 -88.0867 97° East 129 148 9,500  Level Jacksonville Center
Sun 08:04:48 AM 30.5772 -88.0556 79° East 128 147 9,500  Level Jacksonville Center
Sun 08:05:48 AM 30.5811 -88.0147 84° East 127 146 9,500  Level Jacksonville Center
Sun 08:06:49 AM 30.5867 -87.9764 80° East 128 147 9,500  Level Jacksonville Center
Sun 08:07:49 AM 30.5950 -87.9286 79° East 131 151 9,500  Level Jacksonville Center
Sun 08:08:56 AM 30.6008 -87.8806 82° East 130 150 9,500  Level Jacksonville Center
Sun 08:09:00 AM 30.5969 -87.7907 97° East  Level Estimated
Sun 08:09:57 AM 30.6044 -87.8422 84° East 126 145 9,500  Level Jacksonville Center
Sun 08:10:57 AM 30.6103 -87.7992 81° East 128 147 9,500  Level Jacksonville Center
Sun 08:11:58 AM 30.6161 -87.7608 80° East 129 148 9,500  Level Jacksonville Center
Sun 08:12:59 AM 30.6197 -87.7175 84° East 129 148 9,500  Level Jacksonville Center
Sun 08:13:53 AM 30.6275 -87.6817 76° East 128 147 9,500  Level Jacksonville Center
Sun 08:14:54 AM 30.6331 -87.6411 81° East 127 146 9,500  Level Jacksonville Center
Sun 08:15:54 AM 30.6367 -87.6000 84° East 128 147 9,500  Level Jacksonville Center
Sun 08:16:49 AM 30.6422 -87.5642 80° East 130 150 9,500  Level Jacksonville Center
Sun 08:17:49 AM 30.6481 -87.5186 82° East 130 150 9,500  Level Jacksonville Center
Sun 08:18:50 AM 30.6536 -87.4803 80° East 132 152 9,500  Level Jacksonville Center
Sun 08:19:51 AM 30.6594 -87.4369 81° East 127 146 9,500  Level Jacksonville Center
Sun 08:20:51 AM 30.6650 -87.3964 81° East 126 145 9,500  Level Jacksonville Center
Sun 08:21:52 AM 30.6706 -87.3556 81° East 128 147 9,500  Level Jacksonville Center
Sun 08:22:52 AM 30.6761 -87.3147 81° East 129 148 9,500  Level Jacksonville Center
Sun 08:23:53 AM 30.6817 -87.2739 81° East 127 146 9,500  Level Jacksonville Center
Sun 08:24:54 AM 30.6853 -87.2356 84° East 126 145 9,500  Level Jacksonville Center
Sun 08:25:54 AM 30.6928 -87.1922 79° East 128 147 9,500  Level Jacksonville Center
Sun 08:26:55 AM 30.6986 -87.1492 81° East 131 151 9,500  Level Jacksonville Center
Sun 08:27:55 AM 30.7019 -87.1106 84° East 128 147 9,500  Level Jacksonville Center
Sun 08:29:00 AM 30.6791 -87.0722 125° Southeast  Level FlightAware Approximate
Sun 08:36:00 AM 30.5556 -86.8114 100° East  Level FlightAware Approximate
Sun 08:37:00 AM 30.5490 -86.7691 100° East  Level FlightAware Approximate
Sun 08:38:00 AM 30.5425 -86.7268 100° East  Level FlightAware Approximate
Sun 08:39:00 AM 30.5359 -86.6845 100° East  Level FlightAware Approximate
Sun 08:40:00 AM 30.5293 -86.6422 100° East  Level FlightAware Approximate
Sun 08:41:00 AM 30.5227 -86.5999 100° East  Level FlightAware Approximate
Sun 08:42:00 AM 30.5161 -86.5576 100° East  Level FlightAware Approximate
Sun 08:43:00 AM 30.5094 -86.5153 100° East  Level FlightAware Approximate
Sun 08:44:00 AM 30.5028 -86.4730 100° East  Level FlightAware Approximate
Sun 08:45:00 AM 30.4961 -86.4307 100° East  Level FlightAware Approximate
Sun 08:46:00 AM 30.4895 -86.3885 100° East  Level FlightAware Approximate
Sun 08:47:00 AM 30.4828 -86.3462 100° East  Level FlightAware Approximate
Sun 08:48:00 AM 30.4761 -86.3039 100° East  Level FlightAware Approximate
Sun 08:49:00 AM 30.4694 -86.2617 100° East  Level FlightAware Approximate
Sun 08:50:00 AM 30.4626 -86.2195 100° East  Level FlightAware Approximate
Sun 08:51:00 AM 30.4559 -86.1772 100° East  Level FlightAware Approximate
Sun 08:51:12 AM 30.8114 -86.1603 99° East 128 147 9,500  Level Jacksonville Center
Sun 08:52:00 AM 30.4491 -86.1350 101° East  Level FlightAware Approximate
Sun 08:52:12 AM 30.8039 -86.1214 103° East 128 147 9,500  Level Jacksonville Center
Sun 08:53:00 AM 30.4424 -86.0928 101° East  Level FlightAware Approximate
Sun 08:53:12 AM 30.7967 -86.0800 101° East 123 142 9,500  Level Jacksonville Center
Sun 08:54:00 AM 30.4356 -86.0505 101° East  Level FlightAware Approximate
Sun 08:54:12 AM 30.7892 -86.0433 103° East 136 157 9,500  Level Jacksonville Center
Sun 08:55:00 AM 30.4293 -86.0053 99° East  Level Estimated
Sun 08:55:12 AM 30.7797 -86.0044 106° East 141 162 9,500  Level Jacksonville Center
Sun 08:56:12 AM 30.7703 -85.9656 106° East 131 151 9,500  Level Jacksonville Center
Sun 08:57:12 AM 30.7606 -85.9264 106° East 126 145 9,500  Level Jacksonville Center
Sun 08:58:12 AM 30.7533 -85.8853 102° East 131 151 9,500  Level Jacksonville Center
Sun 08:59:12 AM 30.7500 -85.8464 96° East 125 144 9,500  Level Jacksonville Center
Sun 09:00:12 AM 30.7425 -85.8075 103° East 125 144 9,500  Level Jacksonville Center
Sun 09:01:12 AM 30.7311 -85.7661 108° East 125 144 9,500  Level Jacksonville Center
Sun 09:02:12 AM 30.7192 -85.7319 112° Southeast 125 144 9,500  Level Jacksonville Center
Sun 09:03:12 AM 30.7056 -85.6928 112° Southeast 120 138 9,500  Level Jacksonville Center
Sun 09:04:12 AM 30.6917 -85.6586 115° Southeast 125 144 9,500  Level Jacksonville Center
Sun 09:05:12 AM 30.6736 -85.6217 120° Southeast 120 138 9,500  Level Jacksonville Center
Sun 09:06:12 AM 30.6578 -85.5875 118° Southeast 125 144 9,500 -100 Level Jacksonville Center
Sun 09:07:12 AM 30.6419 -85.5461 114° Southeast 125 144 9,300 -500 Descending Jacksonville Center
Sun 09:08:12 AM 30.6303 -85.5047 108° East 130 150 8,500 -450 Descending Jacksonville Center
Sun 09:09:12 AM 30.6164 -85.4656 112° Southeast 136 157 8,400 50 Descending Jacksonville Center
Sun 09:10:12 AM 30.6086 -85.4292 104° East 131 151 8,600 100 Climbing Jacksonville Center
Sun 09:11:12 AM 30.5947 -85.3928 114° Southeast 126 145 8,600  Level Jacksonville Center
Sun 09:12:12 AM 30.5853 -85.3539 106° East 126 145 8,600 50 Level Jacksonville Center
Sun 09:13:12 AM 30.5775 -85.3175 104° East 126 145 8,700 200 Climbing Jacksonville Center
Sun 09:14:12 AM 30.5697 -85.2811 104° East 126 145 9,000 300 Climbing Jacksonville Center
Sun 09:15:12 AM 30.5622 -85.2472 104° East 116 133 9,300 250 Climbing Jacksonville Center
Sun 09:16:12 AM 30.5564 -85.2133 101° East 103 119 9,500 100 Climbing Jacksonville Center
Sun 09:17:12 AM 30.5486 -85.1792 105° East 108 124 9,500 -150 Level Jacksonville Center
Sun 09:18:12 AM 30.5392 -85.1356 104° East 115 132 9,200 -300 Descending Jacksonville Center
Sun 09:19:12 AM 30.5294 -85.0944 105° East 125 144 8,900 -350 Descending Jacksonville Center
Sun 09:20:12 AM 30.5217 -85.0556 103° East 125 144 8,500 -400 Descending Jacksonville Center
Sun 09:21:12 AM 30.5078 -85.0144 111° Southeast 131 151 8,100 -400 Descending Jacksonville Center
Sun 09:22:12 AM 30.4958 -84.9828 114° Southeast 126 145 7,700 -400 Descending Jacksonville Center
Sun 09:23:12 AM 30.4775 -84.9439 119° Southeast 126 145 7,300 -400 Descending Jacksonville Center
Sun 09:24:12 AM 30.4614 -84.9072 117° Southeast 126 145 6,900 -400 Descending Jacksonville Center
Sun 09:25:12 AM 30.4453 -84.8683 116° Southeast 126 145 6,500 -400 Descending Jacksonville Center
Sun 09:26:12 AM 30.4356 -84.8344 108° East 126 145 6,100 -400 Descending Jacksonville Center
Sun 09:27:12 AM 30.4236 -84.7981 111° Southeast 121 139 5,700 -400 Descending Jacksonville Center
Sun 09:29:00 AM 30.4049 -84.7283 107° East  Level FlightAware Approximate

Login

Don't have an account? Register now (free) for customized features, flight alerts, and more!